HBH weather

Entrance Island Seaplane Base
Entrance Island, Alaska, United States

Public forecast

Using degrees Fahrenheit for public forecast. Weather courtesy of forecast.io.

METAR (pilot weather report)

Closest report is Kake Airport, 31.1 nm (57.6 km) SSW. Retrieved 2019/09/19 17:56 UTC (12 minutes ago):

PAFE 191756Z AUTO 12007KT 10SM SCT065 OVC100 13/11 A2991 RMK AO2 RAE01 SLP141 P0000 60001 T01330111 10133 20117 51010

TAF (pilot weather forecast)

Closest forecast is Petersburg James A Johnson Airport, 40.0 nm (74.1 km) SSE. Retrieved 2019/09/19 18:33 UTC (0 seconds ago):

TAF PAPG 191729Z 1918/2018 VRB03KT P6SM VCSH FEW002 SCT020 OVC040 TEMPO 1918/1920 VRB05KT 4SM -SHRA BR BKN020 OVC040 FM200400 VRB03KT P6SM BKN050 FM201500 09012KT 5SM -RA BR BKN015 OVC030 AMD LTD TO CLD VIS AND WIND 2006/2015